createdAt,value
2022-12-28T00:01:03.728Z,5.37
2022-12-28T00:06:07.172Z,5.43
2022-12-28T00:11:13.353Z,5.48
2022-12-28T00:16:12.777Z,5.58
2022-12-28T00:21:15.418Z,5.59
2022-12-28T00:26:18.020Z,5.62
2022-12-28T00:31:24.751Z,5.61
2022-12-28T00:37:11.390Z,5.69
2022-12-28T00:41:30.123Z,5.71
2022-12-28T00:46:32.921Z,5.77
2022-12-28T00:51:35.433Z,5.78
2022-12-28T00:56:37.922Z,5.78
2022-12-28T01:01:42.781Z,5.77
2022-12-28T01:06:45.565Z,5.82
2022-12-28T01:16:50.858Z,5.86
2022-12-28T01:21:56.119Z,5.89
2022-12-28T01:26:58.885Z,5.89
2022-12-28T01:32:01.502Z,5.9
2022-12-28T01:37:04.269Z,5.87
2022-12-28T01:52:14.971Z,5.84
2022-12-28T02:02:21.028Z,5.57
2022-12-28T02:07:23.546Z,5.46
2022-12-28T02:12:26.162Z,5.38
2022-12-28T02:17:28.812Z,5.27
2022-12-28T02:22:31.857Z,5.24
2022-12-28T02:27:34.490Z,5.22
2022-12-28T02:32:37.137Z,5.23
2022-12-28T02:37:39.689Z,5.24
2022-12-28T02:42:42.295Z,5.16
2022-12-28T02:57:53.148Z,5.11
2022-12-28T03:02:58.536Z,5.07
2022-12-28T03:08:01.101Z,5.06
2022-12-28T03:18:06.024Z,4.99
2022-12-28T03:28:13.941Z,5.08
2022-12-28T03:33:16.788Z,5.11
2022-12-28T03:43:21.824Z,4.98
2022-12-28T03:53:27.374Z,4.89
2022-12-28T03:58:30.118Z,4.91
2022-12-28T04:08:35.717Z,4.87
2022-12-28T04:13:38.370Z,4.77
2022-12-28T04:18:41.125Z,4.8
2022-12-28T04:23:43.589Z,4.78
2022-12-28T04:28:46.221Z,4.74
2022-12-28T04:33:48.951Z,4.77
2022-12-28T04:38:51.579Z,4.78
2022-12-28T04:48:57.348Z,4.81
2022-12-28T04:54:00.205Z,4.73
2022-12-28T04:59:02.757Z,4.77
2022-12-28T05:04:05.520Z,4.69
2022-12-28T05:09:08.268Z,4.75
2022-12-28T05:14:10.800Z,4.77
2022-12-28T05:19:13.397Z,4.79
2022-12-28T05:24:16.028Z,4.81
2022-12-28T05:39:24.417Z,4.92
2022-12-28T05:44:27.098Z,5.01
2022-12-28T05:49:29.883Z,4.95
2022-12-28T05:54:32.635Z,4.96
2022-12-28T05:59:35.336Z,5.05
2022-12-28T06:04:37.990Z,5.03
2022-12-28T06:09:41.224Z,5.1
2022-12-28T06:14:43.995Z,5.15
2022-12-28T06:19:46.300Z,5.22
2022-12-28T06:29:54.787Z,5.33
2022-12-28T06:34:57.455Z,5.44
2022-12-28T06:40:00.230Z,5.43
2022-12-28T06:45:03.005Z,5.39
2022-12-28T06:55:08.444Z,5.29
2022-12-28T07:00:11.164Z,5.26
2022-12-28T07:05:13.934Z,5.25
2022-12-28T07:10:16.844Z,5.19
2022-12-28T07:15:19.446Z,5.23
2022-12-28T07:20:22.010Z,5.29
2022-12-28T07:30:30.975Z,5.45
2022-12-28T07:35:36.756Z,5.47
2022-12-28T07:45:46.693Z,5.57
2022-12-28T07:50:49.156Z,5.62
2022-12-28T07:55:51.759Z,5.66
2022-12-28T08:00:54.635Z,5.77
2022-12-28T08:05:57.070Z,5.84
2022-12-28T08:21:05.079Z,5.94
2022-12-28T08:26:07.642Z,6.01
2022-12-28T08:31:10.130Z,6.05
2022-12-28T08:36:12.980Z,6.17
2022-12-28T08:41:15.900Z,6.23
2022-12-28T08:46:21.945Z,6.45
2022-12-28T08:51:24.761Z,6.5
2022-12-28T08:56:30.291Z,6.62
2022-12-28T09:06:35.802Z,6.76
2022-12-28T09:11:38.332Z,6.8
2022-12-28T09:21:43.965Z,6.84
2022-12-28T09:26:46.507Z,6.89
2022-12-28T09:31:49.251Z,6.92
2022-12-28T09:42:59.018Z,7.22
2022-12-28T09:48:01.533Z,7.19
2022-12-28T09:53:04.280Z,7.36
2022-12-28T09:58:07.578Z,7.38
2022-12-28T10:03:10.301Z,7.38
2022-12-28T10:08:13.235Z,7.64
2022-12-28T10:13:37.365Z,7.7
2022-12-28T10:18:21.524Z,7.75
2022-12-28T10:23:24.365Z,7.92
2022-12-28T10:28:27.106Z,7.8
2022-12-28T10:33:29.854Z,7.81
2022-12-28T10:38:32.610Z,7.74
2022-12-28T10:43:35.466Z,7.8
2022-12-28T10:48:38.004Z,7.86
2022-12-28T10:53:40.415Z,8
2022-12-28T10:58:43.192Z,8.13
2022-12-28T11:03:54.325Z,8.27
2022-12-28T11:08:57.213Z,8.42
2022-12-28T11:14:02.966Z,8.59
2022-12-28T11:19:05.748Z,8.57
2022-12-28T11:24:08.308Z,8.56
2022-12-28T11:34:13.844Z,8.79
2022-12-28T11:39:16.609Z,8.77
2022-12-28T11:44:19.412Z,8.79
2022-12-28T11:49:22.114Z,8.8
2022-12-28T11:54:24.861Z,8.82
2022-12-28T11:59:27.216Z,8.85
2022-12-28T12:04:35.419Z,8.97
2022-12-28T12:09:38.076Z,8.9
2022-12-28T12:20:10.964Z,9.05
2022-12-28T12:25:16.415Z,9.33
2022-12-28T12:30:18.945Z,9.37
2022-12-28T12:35:21.478Z,9.4
2022-12-28T12:45:27.922Z,9.5
2022-12-28T12:50:30.640Z,9.59
2022-12-28T12:55:33.885Z,9.74
2022-12-28T13:00:45.690Z,9.88
2022-12-28T13:05:44.859Z,10.09
2022-12-28T13:10:47.615Z,10.03
2022-12-28T13:15:51.135Z,10.21
2022-12-28T13:31:02.444Z,10.4
2022-12-28T13:51:14.484Z,9.88
2022-12-28T13:56:15.509Z,9.84
2022-12-28T14:01:21.414Z,9.71
2022-12-28T14:06:24.001Z,9.63
2022-12-28T14:11:26.784Z,9.5
2022-12-28T14:16:29.304Z,9.44
2022-12-28T14:21:32.011Z,9.38
2022-12-28T14:26:34.805Z,9.23
2022-12-28T14:31:37.579Z,9.17
2022-12-28T14:36:39.948Z,9.15
2022-12-28T14:41:42.479Z,9.08
2022-12-28T14:46:48.368Z,9.13
2022-12-28T14:51:53.674Z,9.09
2022-12-28T15:01:58.777Z,9.18
2022-12-28T15:07:02.289Z,9.16
2022-12-28T15:12:06.258Z,9.08
2022-12-28T15:17:07.318Z,9.02
2022-12-28T15:22:09.847Z,8.92
2022-12-28T15:27:12.493Z,8.93
2022-12-28T15:32:15.233Z,8.91
2022-12-28T15:37:17.790Z,8.81
2022-12-28T15:42:20.732Z,8.78
2022-12-28T15:47:23.478Z,8.77
2022-12-28T15:52:26.039Z,8.88
2022-12-28T15:57:31.587Z,8.97
2022-12-28T16:02:34.455Z,9.03
2022-12-28T16:07:40.414Z,9.09
2022-12-28T16:12:43.016Z,9
2022-12-28T16:17:53.155Z,8.98
2022-12-28T16:22:48.984Z,8.93
2022-12-28T16:27:51.552Z,8.99
2022-12-28T16:32:54.241Z,9.02
2022-12-28T16:37:56.769Z,9.13
2022-12-28T16:42:59.512Z,9.2
2022-12-28T16:48:05.112Z,9.29
2022-12-28T16:53:07.616Z,9.32
2022-12-28T16:58:10.156Z,9.34
2022-12-28T17:03:12.987Z,9.38
2022-12-28T17:08:15.606Z,9.42
2022-12-28T17:13:21.010Z,9.34
2022-12-28T17:18:27.799Z,9.29
2022-12-28T17:23:30.780Z,9.1
2022-12-28T17:28:33.323Z,8.97
2022-12-28T17:33:39.576Z,8.9
2022-12-28T17:38:38.657Z,8.95
2022-12-28T17:43:41.162Z,9.02
2022-12-28T17:48:44.044Z,9.08
2022-12-28T17:53:46.759Z,9.11
2022-12-28T17:58:49.534Z,9.17
2022-12-28T18:03:52.066Z,9.17
2022-12-28T18:08:54.785Z,9.17
2022-12-28T18:13:57.253Z,9.06
2022-12-28T18:24:03.175Z,9.12
2022-12-28T18:29:06.013Z,9.21
2022-12-28T18:34:26.508Z,9.23
2022-12-28T18:39:29.321Z,9.31
2022-12-28T18:44:32.198Z,9.27
2022-12-28T18:49:34.742Z,9.12
2022-12-28T18:54:43.947Z,9.12
2022-12-28T18:59:46.488Z,9.03
2022-12-28T19:04:51.257Z,8.96
2022-12-28T19:09:54.025Z,8.87
2022-12-28T19:14:56.635Z,8.77
2022-12-28T19:19:59.248Z,8.72
2022-12-28T19:25:01.960Z,8.64
2022-12-28T19:30:04.492Z,8.57
2022-12-28T19:35:07.299Z,8.52
2022-12-28T19:40:09.660Z,8.51
2022-12-28T19:45:12.272Z,8.44
2022-12-28T19:50:14.883Z,8.48
2022-12-28T19:55:17.681Z,8.42
2022-12-28T20:00:20.533Z,8.47
2022-12-28T20:10:26.191Z,8.42
2022-12-28T20:15:28.762Z,8.39
2022-12-28T20:20:40.752Z,8.32
2022-12-28T20:25:35.985Z,8.28
2022-12-28T20:35:41.226Z,8.27
2022-12-28T20:40:43.638Z,8.23
2022-12-28T20:50:48.645Z,8.19
2022-12-28T20:55:51.512Z,8.2
2022-12-28T21:00:54.283Z,8.28
2022-12-28T21:05:56.924Z,8.32
2022-12-28T21:10:59.623Z,8.37
2022-12-28T21:16:02.128Z,8.42
2022-12-28T21:21:04.951Z,8.44
2022-12-28T21:26:07.834Z,8.45
2022-12-28T21:31:10.682Z,8.49
2022-12-28T21:36:14.066Z,8.51
2022-12-28T21:41:16.517Z,8.47
2022-12-28T21:46:19.499Z,8.55
2022-12-28T21:51:22.008Z,8.53
2022-12-28T21:56:24.623Z,8.65
2022-12-28T22:01:27.565Z,8.68
2022-12-28T22:06:30.207Z,8.69
2022-12-28T22:11:33.365Z,8.72
2022-12-28T22:16:36.117Z,8.79
2022-12-28T22:21:38.838Z,8.83
2022-12-28T22:26:41.582Z,8.91
2022-12-28T22:31:44.407Z,8.95
2022-12-28T22:36:47.148Z,9.01
2022-12-28T22:41:49.792Z,9.04
2022-12-28T22:46:52.322Z,9.11
2022-12-28T22:51:55.166Z,9.13
2022-12-28T22:56:58.034Z,9.13
2022-12-28T23:02:00.964Z,9.01
2022-12-28T23:07:07.320Z,9.03
2022-12-28T23:12:10.208Z,8.91
2022-12-28T23:17:12.727Z,8.84
2022-12-28T23:27:18.329Z,8.9
2022-12-28T23:32:21.059Z,8.85
2022-12-28T23:37:23.633Z,8.86
2022-12-28T23:42:26.362Z,8.75
2022-12-28T23:47:28.769Z,8.74
2022-12-28T23:52:31.514Z,8.8
2022-12-28T23:57:34.209Z,8.8
